createdAt,value
2019-03-10T00:00:30.144Z,7.00
2019-03-10T00:03:00.017Z,7.00
2019-03-10T00:05:28.649Z,7.10
2019-03-10T00:07:57.844Z,7.10
2019-03-10T00:10:26.402Z,7.10
2019-03-10T00:12:55.245Z,7.00
2019-03-10T00:15:23.799Z,7.00
2019-03-10T00:17:52.369Z,7.00
2019-03-10T00:20:20.933Z,6.90
2019-03-10T00:22:51.588Z,6.90
2019-03-10T00:25:20.221Z,6.90
2019-03-10T00:27:48.946Z,6.80
2019-03-10T00:30:19.110Z,6.90
2019-03-10T00:32:47.746Z,6.80
2019-03-10T00:35:17.352Z,6.80
2019-03-10T00:37:46.101Z,6.80
2019-03-10T00:40:46.138Z,6.70
2019-03-10T00:43:32.457Z,6.70
2019-03-10T00:46:40.145Z,6.70
2019-03-10T00:49:34.257Z,6.70
2019-03-10T00:52:14.816Z,6.60
2019-03-10T00:54:46.243Z,6.60
2019-03-10T00:57:14.870Z,6.60
2019-03-10T00:59:44.693Z,6.60
2019-03-10T01:02:13.595Z,6.60
2019-03-10T01:04:42.113Z,6.60
2019-03-10T01:07:10.702Z,6.60
2019-03-10T01:09:39.261Z,6.60
2019-03-10T01:12:09.458Z,6.60
2019-03-10T01:14:38.059Z,6.50
2019-03-10T01:17:07.074Z,6.60
2019-03-10T01:19:37.682Z,6.60
2019-03-10T01:22:07.030Z,6.60
2019-03-10T01:24:38.119Z,6.60
2019-03-10T01:27:06.624Z,6.60
2019-03-10T01:29:36.752Z,6.60
2019-03-10T01:32:17.782Z,6.60
2019-03-10T01:34:52.364Z,6.60
2019-03-10T01:37:22.928Z,6.60
2019-03-10T01:39:52.278Z,6.60
2019-03-10T01:42:20.920Z,6.60
2019-03-10T01:44:49.539Z,6.60
2019-03-10T01:47:18.638Z,6.60
2019-03-10T01:49:47.994Z,6.60
2019-03-10T01:52:17.638Z,6.60
2019-03-10T01:54:50.053Z,6.70
2019-03-10T01:57:23.302Z,6.70
2019-03-10T01:59:51.653Z,6.70
2019-03-10T02:02:25.607Z,6.70
2019-03-10T02:04:54.030Z,6.70
2019-03-10T02:07:22.583Z,6.80
2019-03-10T02:09:52.756Z,6.80
2019-03-10T02:12:22.254Z,6.70
2019-03-10T02:14:51.744Z,6.80
2019-03-10T02:17:22.163Z,6.80
2019-03-10T02:19:50.745Z,6.80
2019-03-10T02:22:19.317Z,6.80
2019-03-10T02:24:47.817Z,6.80
2019-03-10T02:27:16.670Z,6.80
2019-03-10T02:29:45.830Z,6.80
2019-03-10T02:32:14.333Z,6.80
2019-03-10T02:34:43.535Z,6.80
2019-03-10T02:37:13.636Z,6.80
2019-03-10T02:39:42.233Z,6.80
2019-03-10T02:42:10.814Z,6.80
2019-03-10T02:44:39.404Z,6.80
2019-03-10T02:47:09.059Z,6.90
2019-03-10T02:49:37.651Z,6.80
2019-03-10T02:52:06.379Z,6.90
2019-03-10T02:54:35.229Z,6.90
2019-03-10T02:57:05.446Z,6.90
2019-03-10T02:59:35.851Z,6.90
2019-03-10T03:02:06.870Z,6.90
2019-03-10T03:04:37.748Z,6.90
2019-03-10T03:07:06.643Z,6.90
2019-03-10T03:09:35.790Z,6.90
2019-03-10T03:12:04.430Z,6.90
2019-03-10T03:14:33.469Z,6.90
2019-03-10T03:17:03.571Z,6.90
2019-03-10T03:19:33.687Z,6.90
2019-03-10T03:22:02.590Z,6.90
2019-03-10T03:24:31.111Z,6.90
2019-03-10T03:27:02.354Z,6.90
2019-03-10T03:29:29.878Z,6.90
2019-03-10T03:31:58.726Z,7.00
2019-03-10T03:34:29.400Z,7.00
2019-03-10T03:37:01.185Z,6.90
2019-03-10T03:39:32.625Z,6.90
2019-03-10T03:42:02.727Z,6.90
2019-03-10T03:44:31.870Z,7.00
2019-03-10T03:47:01.047Z,6.90
2019-03-10T03:49:29.861Z,6.90
2019-03-10T03:52:00.082Z,6.90
2019-03-10T03:54:29.235Z,7.00
2019-03-10T03:57:00.157Z,6.90
2019-03-10T03:59:29.056Z,6.90
2019-03-10T04:01:59.266Z,6.90
2019-03-10T04:04:28.030Z,6.90
2019-03-10T04:06:58.109Z,6.90
2019-03-10T04:09:27.234Z,6.80
2019-03-10T04:11:56.509Z,6.90
2019-03-10T04:14:25.757Z,6.80
2019-03-10T04:16:54.431Z,6.90
2019-03-10T04:19:24.295Z,6.80
2019-03-10T04:21:52.888Z,6.90
2019-03-10T04:24:24.950Z,6.90
2019-03-10T04:26:53.602Z,6.80
2019-03-10T04:29:22.440Z,6.80
2019-03-10T04:31:52.068Z,6.80
2019-03-10T04:34:22.653Z,6.70
2019-03-10T04:36:51.247Z,6.70
2019-03-10T04:39:22.057Z,6.70
2019-03-10T04:41:50.694Z,6.70
2019-03-10T04:44:19.329Z,6.60
2019-03-10T04:46:47.842Z,6.70
2019-03-10T04:49:17.630Z,6.60
2019-03-10T04:51:46.385Z,6.60
2019-03-10T04:54:16.806Z,6.60
2019-03-10T04:56:47.022Z,6.60
2019-03-10T04:59:15.529Z,6.50
2019-03-10T05:01:44.600Z,6.50
2019-03-10T05:04:13.104Z,6.50
2019-03-10T05:06:42.678Z,6.50
2019-03-10T05:09:11.246Z,6.50
2019-03-10T05:11:39.753Z,6.50
2019-03-10T05:14:10.542Z,6.40
2019-03-10T05:16:39.133Z,6.40
2019-03-10T05:19:08.015Z,6.40
2019-03-10T05:21:36.603Z,6.40
2019-03-10T05:24:07.504Z,6.30
2019-03-10T05:26:36.021Z,6.30
2019-03-10T05:29:04.716Z,6.30
2019-03-10T05:31:33.357Z,6.30
2019-03-10T05:34:01.857Z,6.30
2019-03-10T05:36:30.447Z,6.30
2019-03-10T05:38:59.113Z,6.30
2019-03-10T05:41:27.682Z,6.30
2019-03-10T05:43:58.691Z,6.20
2019-03-10T05:46:26.489Z,6.20
2019-03-10T05:48:55.061Z,6.10
2019-03-10T05:51:23.743Z,6.10
2019-03-10T05:53:53.086Z,6.10
2019-03-10T05:56:22.246Z,6.10
2019-03-10T05:58:50.793Z,6.10
2019-03-10T06:01:20.398Z,6.10
2019-03-10T06:03:49.537Z,6.00
2019-03-10T06:06:18.123Z,6.00
2019-03-10T06:08:46.949Z,6.00
2019-03-10T06:11:15.592Z,6.00
2019-03-10T06:13:44.087Z,5.90
2019-03-10T06:16:12.741Z,5.90
2019-03-10T06:18:41.356Z,5.90
2019-03-10T06:21:09.891Z,5.90
2019-03-10T06:23:38.457Z,5.90
2019-03-10T06:26:07.040Z,5.90
2019-03-10T06:28:35.631Z,5.80
2019-03-10T06:31:04.259Z,5.90
2019-03-10T06:33:32.875Z,5.80
2019-03-10T06:36:01.682Z,5.80
2019-03-10T06:38:30.471Z,5.70
2019-03-10T06:40:59.051Z,5.70
2019-03-10T06:43:28.190Z,5.70
2019-03-10T06:45:56.754Z,5.70
2019-03-10T06:48:26.542Z,5.80
2019-03-10T06:50:55.598Z,5.80
2019-03-10T06:53:24.185Z,5.80
2019-03-10T06:55:52.780Z,5.80
2019-03-10T06:58:21.929Z,5.90
2019-03-10T07:00:50.505Z,5.80
2019-03-10T07:03:19.198Z,5.90
2019-03-10T07:05:47.768Z,5.80
2019-03-10T07:08:16.930Z,5.80
2019-03-10T07:10:46.635Z,5.80
2019-03-10T07:13:15.318Z,5.80
2019-03-10T07:15:43.873Z,5.70
2019-03-10T07:18:13.531Z,5.70
2019-03-10T07:20:42.065Z,5.70
2019-03-10T07:23:12.224Z,5.80
2019-03-10T07:25:42.020Z,5.80
2019-03-10T07:28:27.963Z,5.80
2019-03-10T07:31:00.836Z,5.80
2019-03-10T07:33:31.054Z,5.90
2019-03-10T07:36:13.295Z,5.90
2019-03-10T07:38:55.086Z,5.90
2019-03-10T07:41:26.092Z,5.90
2019-03-10T07:44:00.312Z,6.00
2019-03-10T07:46:41.041Z,6.00
2019-03-10T07:49:18.144Z,6.00
2019-03-10T07:51:59.474Z,6.10
2019-03-10T07:54:36.883Z,6.10
2019-03-10T07:57:13.537Z,6.20
2019-03-10T07:59:59.977Z,6.20
2019-03-10T08:02:48.042Z,6.20
2019-03-10T08:05:21.213Z,6.20
2019-03-10T08:08:08.944Z,6.20
2019-03-10T08:10:41.722Z,6.20
2019-03-10T08:13:25.434Z,6.20
2019-03-10T08:15:59.243Z,6.30
2019-03-10T08:18:29.561Z,6.30
2019-03-10T08:21:15.032Z,6.20
2019-03-10T08:23:45.377Z,6.30
2019-03-10T08:26:31.587Z,6.20
2019-03-10T08:29:16.700Z,6.10
2019-03-10T08:31:49.636Z,6.20
2019-03-10T08:34:20.338Z,6.20
2019-03-10T08:37:06.626Z,6.30
2019-03-10T08:39:46.926Z,6.30
2019-03-10T08:42:20.868Z,6.40
2019-03-10T08:44:59.982Z,6.30
2019-03-10T08:47:33.909Z,6.20
2019-03-10T08:50:18.965Z,6.10
2019-03-10T08:52:50.726Z,6.10
2019-03-10T08:55:23.495Z,6.00
2019-03-10T08:57:59.492Z,6.00
2019-03-10T09:00:35.126Z,6.10
2019-03-10T09:03:08.623Z,6.10
2019-03-10T09:05:38.838Z,6.10
2019-03-10T09:08:18.359Z,6.00
2019-03-10T09:11:06.935Z,6.00
2019-03-10T09:13:46.323Z,6.10
2019-03-10T09:16:30.020Z,6.20
2019-03-10T09:19:11.051Z,6.20
2019-03-10T09:21:57.282Z,6.20
2019-03-10T09:24:29.048Z,6.20
2019-03-10T09:27:18.870Z,6.40
2019-03-10T09:29:49.855Z,6.50
2019-03-10T09:32:24.485Z,6.50
2019-03-10T09:35:00.680Z,6.60
2019-03-10T09:37:31.023Z,6.50
2019-03-10T09:40:17.305Z,6.50
2019-03-10T09:42:50.362Z,6.60
2019-03-10T09:45:23.395Z,6.60
2019-03-10T09:47:53.594Z,6.50
2019-03-10T09:50:29.577Z,6.40
2019-03-10T09:53:15.229Z,6.40
2019-03-10T09:56:03.020Z,6.50
2019-03-10T09:58:45.779Z,6.50
2019-03-10T10:01:19.911Z,6.60
2019-03-10T10:03:59.362Z,6.60
2019-03-10T10:06:45.783Z,6.60
2019-03-10T10:09:16.413Z,6.50
2019-03-10T10:11:56.078Z,6.60
2019-03-10T10:14:33.600Z,6.60
2019-03-10T10:17:15.655Z,6.60
2019-03-10T10:19:51.654Z,6.80
2019-03-10T10:22:21.783Z,6.70
2019-03-10T10:25:05.972Z,6.60
2019-03-10T10:27:42.067Z,6.60
2019-03-10T10:30:30.731Z,6.50
2019-03-10T10:33:17.917Z,6.50
2019-03-10T10:35:51.313Z,6.50
2019-03-10T10:38:24.494Z,6.40
2019-03-10T10:41:00.537Z,6.40
2019-03-10T10:43:33.451Z,6.40
2019-03-10T10:46:04.264Z,6.50
2019-03-10T10:48:39.988Z,6.50
2019-03-10T10:51:11.160Z,6.50
2019-03-10T10:53:44.911Z,6.60
2019-03-10T10:56:31.147Z,6.60
2019-03-10T10:59:01.373Z,6.70
2019-03-10T11:01:49.491Z,6.70
2019-03-10T11:04:19.854Z,6.80
2019-03-10T11:06:54.200Z,6.80
2019-03-10T11:09:31.575Z,6.90
2019-03-10T11:12:10.745Z,6.80
2019-03-10T11:14:43.394Z,6.70
2019-03-10T11:17:23.539Z,6.60
2019-03-10T11:20:11.761Z,6.60
2019-03-10T11:22:46.945Z,6.70
2019-03-10T11:25:22.911Z,6.70
2019-03-10T11:27:59.145Z,6.70
2019-03-10T11:30:33.046Z,6.70
2019-03-10T11:33:13.665Z,6.70
2019-03-10T11:35:59.021Z,6.70
2019-03-10T11:38:44.354Z,6.80
2019-03-10T11:41:15.666Z,6.80
2019-03-10T11:43:46.444Z,6.80
2019-03-10T11:46:39.439Z,6.80
2019-03-10T11:49:15.694Z,6.80
2019-03-10T11:51:46.006Z,6.70
2019-03-10T11:54:19.585Z,6.70
2019-03-10T11:57:03.070Z,6.70
2019-03-10T11:59:33.290Z,6.80
2019-03-10T12:02:15.510Z,6.90
2019-03-10T12:04:42.576Z,7.00
2019-03-10T12:07:18.539Z,7.00
2019-03-10T12:09:47.147Z,7.10
2019-03-10T12:12:15.782Z,7.20
2019-03-10T12:14:44.371Z,7.30
2019-03-10T12:17:12.933Z,7.40
2019-03-10T12:19:42.084Z,7.40
2019-03-10T12:22:12.200Z,7.40
2019-03-10T12:24:41.349Z,7.50
2019-03-10T12:27:12.542Z,7.40
2019-03-10T12:29:41.106Z,7.40
2019-03-10T12:32:09.698Z,7.30
2019-03-10T12:34:38.328Z,7.30
2019-03-10T12:37:07.002Z,7.30
2019-03-10T12:39:36.749Z,7.30
2019-03-10T12:42:05.335Z,7.30
2019-03-10T12:44:33.895Z,7.30
2019-03-10T12:47:03.234Z,7.30
2019-03-10T12:49:31.800Z,7.40
2019-03-10T12:52:00.401Z,7.50
2019-03-10T12:54:28.962Z,7.70
2019-03-10T12:56:57.478Z,7.90
2019-03-10T12:59:26.098Z,8.20
2019-03-10T13:01:55.859Z,8.50
2019-03-10T13:04:24.406Z,8.70
2019-03-10T13:06:53.548Z,8.80
2019-03-10T13:09:22.144Z,8.90
2019-03-10T13:11:50.810Z,8.90
2019-03-10T13:14:19.364Z,8.80
2019-03-10T13:16:48.949Z,8.70
2019-03-10T13:19:18.234Z,8.60
2019-03-10T13:21:47.217Z,8.60
2019-03-10T13:24:15.846Z,8.50
2019-03-10T13:26:44.615Z,8.50
2019-03-10T13:29:13.254Z,8.50
2019-03-10T13:31:41.993Z,8.50
2019-03-10T13:34:10.578Z,8.60
2019-03-10T13:36:39.414Z,8.70
2019-03-10T13:39:08.387Z,8.70
2019-03-10T13:41:37.061Z,8.80
2019-03-10T13:44:07.059Z,8.80
2019-03-10T13:46:35.726Z,8.60
2019-03-10T13:49:04.298Z,8.60
2019-03-10T13:51:34.161Z,8.60
2019-03-10T13:54:02.782Z,8.60
2019-03-10T13:56:31.357Z,8.50
2019-03-10T13:58:59.847Z,8.70
2019-03-10T14:01:28.443Z,8.90
2019-03-10T14:03:57.030Z,9.10
2019-03-10T14:06:25.637Z,9.10
2019-03-10T14:08:58.831Z,9.20
2019-03-10T14:11:27.932Z,9.30
2019-03-10T14:13:57.129Z,9.40
2019-03-10T14:16:26.815Z,9.50
2019-03-10T14:18:55.319Z,9.70
2019-03-10T14:21:23.972Z,9.80
2019-03-10T14:23:55.062Z,9.70
2019-03-10T14:26:23.791Z,9.60
2019-03-10T14:28:53.755Z,9.40
2019-03-10T14:31:22.338Z,9.30
2019-03-10T14:33:52.148Z,9.20
2019-03-10T14:36:22.518Z,9.00
2019-03-10T14:38:51.242Z,8.80
2019-03-10T14:41:22.367Z,8.70
2019-03-10T14:43:53.494Z,8.50
2019-03-10T14:46:22.094Z,8.50
2019-03-10T14:48:52.049Z,8.40
2019-03-10T14:51:20.579Z,8.20
2019-03-10T14:53:51.633Z,8.10
2019-03-10T14:56:20.186Z,8.00
2019-03-10T14:58:50.087Z,8.00
2019-03-10T15:01:18.665Z,7.90
2019-03-10T15:03:48.899Z,7.80
2019-03-10T15:06:17.480Z,7.80
2019-03-10T15:08:47.114Z,7.70
2019-03-10T15:11:16.762Z,7.70
2019-03-10T15:13:45.350Z,7.60
2019-03-10T15:16:14.050Z,7.60
2019-03-10T15:18:42.636Z,7.60
2019-03-10T15:21:11.199Z,7.60
2019-03-10T15:23:41.239Z,7.70
2019-03-10T15:26:09.802Z,7.70
2019-03-10T15:28:38.381Z,7.70
2019-03-10T15:31:08.130Z,7.60
2019-03-10T15:33:36.706Z,7.60
2019-03-10T15:36:05.611Z,7.60
2019-03-10T15:38:35.524Z,7.60
2019-03-10T15:41:04.086Z,7.70
2019-03-10T15:43:34.062Z,7.70
2019-03-10T15:46:04.586Z,7.70
2019-03-10T15:48:33.242Z,7.70
2019-03-10T15:51:01.825Z,7.80
2019-03-10T15:53:30.419Z,7.90
2019-03-10T15:55:59.067Z,7.90
2019-03-10T15:58:28.231Z,7.90
2019-03-10T16:00:56.803Z,7.90
2019-03-10T16:03:28.071Z,7.90
2019-03-10T16:05:57.968Z,7.60
2019-03-10T16:08:27.730Z,7.10
2019-03-10T16:10:56.789Z,6.50
2019-03-10T16:13:27.014Z,6.00
2019-03-10T16:15:55.590Z,5.40
2019-03-10T16:18:25.085Z,5.00
2019-03-10T16:20:54.733Z,4.90
2019-03-10T16:23:23.322Z,4.70
2019-03-10T16:25:51.895Z,4.40
2019-03-10T16:28:20.469Z,4.20
2019-03-10T16:30:49.359Z,3.90
2019-03-10T16:33:17.937Z,3.70
2019-03-10T16:35:46.506Z,3.50
2019-03-10T16:38:15.088Z,3.50
2019-03-10T16:40:43.729Z,3.30
2019-03-10T16:43:12.317Z,3.20
2019-03-10T16:45:42.273Z,3.00
2019-03-10T16:48:12.345Z,2.90
2019-03-10T16:50:41.485Z,2.80
2019-03-10T16:53:10.063Z,2.80
2019-03-10T16:55:39.235Z,2.60
2019-03-10T16:58:07.854Z,2.50
2019-03-10T17:00:37.938Z,2.50
2019-03-10T17:03:06.543Z,2.60
2019-03-10T17:05:35.200Z,2.50
2019-03-10T17:08:07.110Z,2.50
2019-03-10T17:10:35.717Z,2.50
2019-03-10T17:13:04.363Z,2.50
2019-03-10T17:15:32.913Z,2.50
2019-03-10T17:18:02.084Z,2.50
2019-03-10T17:20:31.221Z,2.50
2019-03-10T17:22:59.955Z,2.50
2019-03-10T17:25:29.679Z,2.50
2019-03-10T17:27:58.861Z,2.50
2019-03-10T17:30:29.009Z,2.50
2019-03-10T17:32:57.670Z,2.40
2019-03-10T17:35:26.220Z,2.40
2019-03-10T17:37:54.883Z,2.30
2019-03-10T17:40:25.368Z,2.30
2019-03-10T17:42:54.293Z,2.30
2019-03-10T17:45:23.996Z,2.30
2019-03-10T17:47:52.642Z,2.30
2019-03-10T17:50:22.734Z,2.30
2019-03-10T17:52:51.334Z,2.40
2019-03-10T17:55:27.831Z,2.40
2019-03-10T17:57:56.377Z,2.40
2019-03-10T18:00:28.143Z,2.40
2019-03-10T18:02:58.266Z,2.50
2019-03-10T18:05:26.840Z,2.50
2019-03-10T18:07:55.401Z,2.60
2019-03-10T18:10:24.061Z,2.60
2019-03-10T18:12:52.633Z,2.60
2019-03-10T18:15:21.300Z,2.60
2019-03-10T18:17:49.854Z,2.60
2019-03-10T18:20:23.214Z,2.60
2019-03-10T18:22:52.018Z,2.60
2019-03-10T18:25:20.666Z,2.70
2019-03-10T18:27:51.323Z,2.70
2019-03-10T18:30:25.101Z,2.70
2019-03-10T18:32:53.668Z,2.70
2019-03-10T18:35:22.670Z,2.70
2019-03-10T18:37:51.223Z,2.80
2019-03-10T18:40:26.197Z,2.80
2019-03-10T18:42:54.930Z,2.80
2019-03-10T18:45:23.586Z,2.90
2019-03-10T18:47:52.136Z,2.90
2019-03-10T18:50:25.812Z,2.90
2019-03-10T18:52:55.451Z,2.90
2019-03-10T18:55:24.382Z,2.90
2019-03-10T18:57:54.284Z,3.00
2019-03-10T19:00:24.862Z,3.00
2019-03-10T19:02:53.558Z,3.00
2019-03-10T19:05:23.324Z,3.10
2019-03-10T19:07:51.825Z,3.20
2019-03-10T19:10:20.408Z,3.20
2019-03-10T19:12:49.033Z,3.30
2019-03-10T19:15:22.477Z,3.20
2019-03-10T19:17:51.039Z,3.30
2019-03-10T19:20:19.701Z,3.40
2019-03-10T19:22:48.254Z,3.30
2019-03-10T19:25:17.221Z,3.30
2019-03-10T19:27:47.494Z,3.30
2019-03-10T19:30:25.287Z,3.40
2019-03-10T19:32:54.902Z,3.30
2019-03-10T19:35:24.660Z,3.30
2019-03-10T19:37:53.972Z,3.30
2019-03-10T19:40:26.192Z,3.30
2019-03-10T19:42:54.822Z,3.40
2019-03-10T19:45:25.269Z,3.30
2019-03-10T19:47:54.317Z,3.30
2019-03-10T19:50:27.610Z,3.30
2019-03-10T19:52:57.209Z,3.30
2019-03-10T19:55:26.192Z,3.30
2019-03-10T19:57:54.769Z,3.30
2019-03-10T20:00:23.851Z,3.30
2019-03-10T20:02:52.419Z,3.30
2019-03-10T20:05:22.542Z,3.30
2019-03-10T20:07:51.127Z,3.30
2019-03-10T20:10:20.946Z,3.30
2019-03-10T20:12:49.514Z,3.30
2019-03-10T20:15:26.141Z,3.30
2019-03-10T20:17:55.059Z,3.20
2019-03-10T20:20:26.272Z,3.20
2019-03-10T20:22:56.414Z,3.20
2019-03-10T20:25:25.010Z,3.20
2019-03-10T20:27:53.644Z,3.20
2019-03-10T20:30:24.451Z,3.10
2019-03-10T20:32:54.563Z,3.10
2019-03-10T20:35:23.150Z,3.10
2019-03-10T20:37:53.151Z,3.00
2019-03-10T20:40:27.128Z,3.00
2019-03-10T20:42:56.015Z,3.00
2019-03-10T20:45:26.171Z,3.00
2019-03-10T20:47:56.822Z,2.90
2019-03-10T20:50:25.632Z,3.00
2019-03-10T20:52:56.543Z,3.10
2019-03-10T20:55:25.149Z,3.10
2019-03-10T20:57:55.162Z,3.10
2019-03-10T21:00:28.113Z,3.10
2019-03-10T21:02:56.609Z,3.10
2019-03-10T21:05:27.589Z,3.10
2019-03-10T21:07:56.777Z,3.10
2019-03-10T21:10:29.919Z,3.10
2019-03-10T21:12:58.559Z,3.00
2019-03-10T21:15:28.616Z,3.00
2019-03-10T21:17:57.176Z,3.10
2019-03-10T21:20:26.410Z,3.10
2019-03-10T21:22:55.686Z,3.10
2019-03-10T21:25:31.210Z,3.10
2019-03-10T21:28:00.350Z,3.10
2019-03-10T21:30:33.426Z,3.20
2019-03-10T21:33:03.137Z,3.10
2019-03-10T21:35:33.306Z,3.20
2019-03-10T21:38:02.898Z,3.10
2019-03-10T21:40:33.407Z,3.10
2019-03-10T21:43:02.332Z,3.10
2019-03-10T21:45:31.056Z,3.10
2019-03-10T21:47:59.619Z,3.10
2019-03-10T21:50:30.019Z,3.20
2019-03-10T21:52:58.961Z,3.20
2019-03-10T21:55:27.827Z,3.20
2019-03-10T21:57:56.476Z,3.20
2019-03-10T22:00:25.395Z,3.30
2019-03-10T22:02:54.651Z,3.30
2019-03-10T22:05:25.972Z,3.30
2019-03-10T22:07:54.529Z,3.30
2019-03-10T22:10:27.680Z,3.30
2019-03-10T22:12:54.927Z,3.30
2019-03-10T22:15:23.557Z,3.30
2019-03-10T22:17:53.667Z,3.40
2019-03-10T22:20:23.295Z,3.40
2019-03-10T22:22:51.851Z,3.40
2019-03-10T22:25:23.610Z,3.40
2019-03-10T22:27:52.260Z,3.40
2019-03-10T22:30:22.286Z,3.30
2019-03-10T22:32:51.490Z,3.30
2019-03-10T22:35:20.142Z,3.30
2019-03-10T22:37:51.614Z,3.30
2019-03-10T22:40:20.245Z,3.20
2019-03-10T22:42:48.893Z,3.30
2019-03-10T22:45:20.700Z,3.40
2019-03-10T22:47:49.839Z,3.30
2019-03-10T22:50:18.474Z,3.40
2019-03-10T22:52:47.034Z,3.40
2019-03-10T22:55:16.154Z,3.30
2019-03-10T22:57:44.820Z,3.30
2019-03-10T23:00:17.403Z,3.10
2019-03-10T23:02:46.054Z,3.10
2019-03-10T23:05:16.345Z,3.00
2019-03-10T23:07:44.849Z,3.00
2019-03-10T23:10:15.499Z,2.90
2019-03-10T23:12:44.216Z,2.80
2019-03-10T23:15:14.178Z,2.80
2019-03-10T23:17:43.168Z,2.80
2019-03-10T23:20:17.429Z,2.70
2019-03-10T23:22:45.947Z,2.70
2019-03-10T23:25:14.509Z,2.70
2019-03-10T23:27:43.720Z,2.70
2019-03-10T23:30:18.486Z,2.70
2019-03-10T23:32:47.403Z,2.70
2019-03-10T23:35:17.115Z,2.60
2019-03-10T23:37:47.289Z,2.60
2019-03-10T23:40:18.834Z,2.70
2019-03-10T23:42:47.355Z,2.60
2019-03-10T23:45:18.060Z,2.60
2019-03-10T23:47:46.797Z,2.60
2019-03-10T23:50:18.913Z,2.60
2019-03-10T23:52:48.959Z,2.60
2019-03-10T23:55:17.590Z,2.60
2019-03-10T23:57:47.048Z,2.60
